sensor_id;sensor_type;location;lat;lon;timestamp;P1;durP1;ratioP1;P2;durP2;ratioP2
52878;SDS011;38747;53.140;6.498;2022-09-13T00:00:55;26.63;;;16.58;;
52878;SDS011;38747;53.140;6.498;2022-09-13T00:03:21;26.35;;;16.38;;
52878;SDS011;38747;53.140;6.498;2022-09-13T00:05:47;25.20;;;15.57;;
52878;SDS011;38747;53.140;6.498;2022-09-13T00:08:13;27.00;;;15.95;;
52878;SDS011;38747;53.140;6.498;2022-09-13T00:10:40;27.17;;;15.80;;
52878;SDS011;38747;53.140;6.498;2022-09-13T00:13:07;27.83;;;17.10;;
52878;SDS011;38747;53.140;6.498;2022-09-13T00:15:34;27.23;;;17.20;;
52878;SDS011;38747;53.140;6.498;2022-09-13T00:18:00;30.90;;;17.87;;
52878;SDS011;38747;53.140;6.498;2022-09-13T00:20:26;27.98;;;16.75;;
52878;SDS011;38747;53.140;6.498;2022-09-13T00:22:52;28.85;;;17.25;;
52878;SDS011;38747;53.140;6.498;2022-09-13T00:25:18;27.57;;;17.23;;
52878;SDS011;38747;53.140;6.498;2022-09-13T00:27:44;33.22;;;19.63;;
52878;SDS011;38747;53.140;6.498;2022-09-13T00:30:10;30.37;;;17.87;;
52878;SDS011;38747;53.140;6.498;2022-09-13T00:32:36;36.53;;;19.45;;
52878;SDS011;38747;53.140;6.498;2022-09-13T00:35:02;33.42;;;18.38;;
52878;SDS011;38747;53.140;6.498;2022-09-13T00:37:29;31.45;;;19.60;;
52878;SDS011;38747;53.140;6.498;2022-09-13T00:39:57;33.03;;;19.67;;
52878;SDS011;38747;53.140;6.498;2022-09-13T00:42:23;30.17;;;18.53;;
52878;SDS011;38747;53.140;6.498;2022-09-13T00:47:37;28.80;;;18.73;;
52878;SDS011;38747;53.140;6.498;2022-09-13T00:50:12;31.90;;;19.52;;
52878;SDS011;38747;53.140;6.498;2022-09-13T00:52:57;34.83;;;20.23;;
52878;SDS011;38747;53.140;6.498;2022-09-13T00:55:29;32.60;;;21.10;;
52878;SDS011;38747;53.140;6.498;2022-09-13T00:58:04;32.97;;;21.08;;
52878;SDS011;38747;53.140;6.498;2022-09-13T01:00:33;30.83;;;19.48;;
52878;SDS011;38747;53.140;6.498;2022-09-13T01:03:01;32.88;;;18.80;;
52878;SDS011;38747;53.140;6.498;2022-09-13T01:05:32;31.00;;;18.40;;
52878;SDS011;38747;53.140;6.498;2022-09-13T01:08:02;30.10;;;17.98;;
52878;SDS011;38747;53.140;6.498;2022-09-13T01:10:34;28.08;;;16.92;;
52878;SDS011;38747;53.140;6.498;2022-09-13T01:13:12;27.60;;;16.75;;
52878;SDS011;38747;53.140;6.498;2022-09-13T01:15:47;29.23;;;17.15;;
52878;SDS011;38747;53.140;6.498;2022-09-13T01:18:12;27.17;;;15.03;;
52878;SDS011;38747;53.140;6.498;2022-09-13T01:20:45;24.80;;;15.30;;
52878;SDS011;38747;53.140;6.498;2022-09-13T01:23:42;26.83;;;14.80;;
52878;SDS011;38747;53.140;6.498;2022-09-13T01:32:09;23.67;;;13.70;;
52878;SDS011;38747;53.140;6.498;2022-09-13T01:34:55;21.88;;;13.50;;
52878;SDS011;38747;53.140;6.498;2022-09-13T01:51:31;18.80;;;11.65;;
52878;SDS011;38747;53.140;6.498;2022-09-13T01:56:37;21.00;;;12.07;;
52878;SDS011;38747;53.140;6.498;2022-09-13T01:59:15;19.25;;;11.52;;
52878;SDS011;38747;53.140;6.498;2022-09-13T02:08:34;18.50;;;11.70;;
52878;SDS011;38747;53.140;6.498;2022-09-13T02:11:05;21.90;;;11.23;;
52878;SDS011;38747;53.140;6.498;2022-09-13T02:13:46;20.48;;;11.52;;
52878;SDS011;38747;53.140;6.498;2022-09-13T02:16:25;19.20;;;11.43;;
52878;SDS011;38747;53.140;6.498;2022-09-13T02:18:58;20.73;;;12.50;;
52878;SDS011;38747;53.140;6.498;2022-09-13T02:21:31;21.58;;;11.13;;
52878;SDS011;38747;53.140;6.498;2022-09-13T02:24:06;17.23;;;10.73;;
52878;SDS011;38747;53.140;6.498;2022-09-13T02:26:36;21.95;;;11.98;;
52878;SDS011;38747;53.140;6.498;2022-09-13T02:29:05;20.42;;;10.82;;
52878;SDS011;38747;53.140;6.498;2022-09-13T02:31:35;20.92;;;12.05;;
52878;SDS011;38747;53.140;6.498;2022-09-13T02:34:06;17.85;;;10.63;;
52878;SDS011;38747;53.140;6.498;2022-09-13T02:36:39;17.70;;;11.10;;
52878;SDS011;38747;53.140;6.498;2022-09-13T02:39:09;19.88;;;11.93;;
52878;SDS011;38747;53.140;6.498;2022-09-13T02:44:35;19.20;;;11.85;;
52878;SDS011;38747;53.140;6.498;2022-09-13T02:47:11;22.50;;;12.88;;
52878;SDS011;38747;53.140;6.498;2022-09-13T02:49:54;19.90;;;11.03;;
52878;SDS011;38747;53.140;6.498;2022-09-13T02:52:41;22.75;;;12.10;;
52878;SDS011;38747;53.140;6.498;2022-09-13T02:55:13;21.27;;;12.13;;
52878;SDS011;38747;53.140;6.498;2022-09-13T02:57:54;23.08;;;12.15;;
52878;SDS011;38747;53.140;6.498;2022-09-13T03:00:26;21.60;;;12.75;;
52878;SDS011;38747;53.140;6.498;2022-09-13T03:02:53;22.57;;;11.87;;
52878;SDS011;38747;53.140;6.498;2022-09-13T03:05:20;25.80;;;12.13;;
52878;SDS011;38747;53.140;6.498;2022-09-13T03:07:46;21.13;;;11.55;;
52878;SDS011;38747;53.140;6.498;2022-09-13T03:10:13;23.65;;;13.13;;
52878;SDS011;38747;53.140;6.498;2022-09-13T03:12:47;21.37;;;12.57;;
52878;SDS011;38747;53.140;6.498;2022-09-13T03:15:56;21.25;;;12.23;;
52878;SDS011;38747;53.140;6.498;2022-09-13T03:19:01;22.85;;;13.32;;
52878;SDS011;38747;53.140;6.498;2022-09-13T03:25:25;19.60;;;11.38;;
52878;SDS011;38747;53.140;6.498;2022-09-13T03:27:49;17.93;;;10.83;;
52878;SDS011;38747;53.140;6.498;2022-09-13T03:30:25;18.27;;;9.70;;
52878;SDS011;38747;53.140;6.498;2022-09-13T03:33:05;18.08;;;9.30;;
52878;SDS011;38747;53.140;6.498;2022-09-13T03:35:46;12.98;;;6.13;;
52878;SDS011;38747;53.140;6.498;2022-09-13T03:38:32;13.47;;;5.77;;
52878;SDS011;38747;53.140;6.498;2022-09-13T03:41:08;10.50;;;5.07;;
52878;SDS011;38747;53.140;6.498;2022-09-13T03:43:42;9.23;;;4.20;;
52878;SDS011;38747;53.140;6.498;2022-09-13T03:46:32;8.15;;;3.60;;
52878;SDS011;38747;53.140;6.498;2022-09-13T03:49:09;5.38;;;2.20;;
52878;SDS011;38747;53.140;6.498;2022-09-13T03:51:38;6.00;;;2.00;;
52878;SDS011;38747;53.140;6.498;2022-09-13T03:54:09;5.35;;;2.20;;
52878;SDS011;38747;53.140;6.498;2022-09-13T03:56:40;6.72;;;2.10;;
52878;SDS011;38747;53.140;6.498;2022-09-13T03:59:06;5.85;;;1.98;;
52878;SDS011;38747;53.140;6.498;2022-09-13T04:01:31;6.30;;;2.13;;
52878;SDS011;38747;53.140;6.498;2022-09-13T04:03:57;6.00;;;2.43;;
52878;SDS011;38747;53.140;6.498;2022-09-13T04:06:23;6.70;;;2.77;;
52878;SDS011;38747;53.140;6.498;2022-09-13T04:08:49;5.70;;;2.50;;
52878;SDS011;38747;53.140;6.498;2022-09-13T04:11:14;7.20;;;2.90;;
52878;SDS011;38747;53.140;6.498;2022-09-13T04:13:40;7.65;;;2.97;;
52878;SDS011;38747;53.140;6.498;2022-09-13T04:16:06;7.20;;;3.27;;
52878;SDS011;38747;53.140;6.498;2022-09-13T04:18:32;7.22;;;3.00;;
52878;SDS011;38747;53.140;6.498;2022-09-13T04:20:59;7.75;;;3.17;;
52878;SDS011;38747;53.140;6.498;2022-09-13T04:23:26;8.48;;;3.25;;
52878;SDS011;38747;53.140;6.498;2022-09-13T04:25:53;7.97;;;3.15;;
52878;SDS011;38747;53.140;6.498;2022-09-13T04:28:19;10.27;;;3.13;;
52878;SDS011;38747;53.140;6.498;2022-09-13T04:30:47;7.05;;;2.85;;
52878;SDS011;38747;53.140;6.498;2022-09-13T04:33:13;6.28;;;2.67;;
52878;SDS011;38747;53.140;6.498;2022-09-13T04:35:41;5.93;;;2.78;;
52878;SDS011;38747;53.140;6.498;2022-09-13T04:38:07;6.67;;;2.33;;
52878;SDS011;38747;53.140;6.498;2022-09-13T04:40:33;6.07;;;2.30;;
52878;SDS011;38747;53.140;6.498;2022-09-13T04:43:00;6.25;;;1.85;;
52878;SDS011;38747;53.140;6.498;2022-09-13T04:45:26;5.60;;;1.73;;
52878;SDS011;38747;53.140;6.498;2022-09-13T04:47:53;4.63;;;1.30;;
52878;SDS011;38747;53.140;6.498;2022-09-13T04:50:23;6.82;;;1.20;;
52878;SDS011;38747;53.140;6.498;2022-09-13T04:52:49;6.38;;;1.83;;
52878;SDS011;38747;53.140;6.498;2022-09-13T04:55:19;6.68;;;1.58;;
52878;SDS011;38747;53.140;6.498;2022-09-13T04:57:44;6.07;;;1.80;;
52878;SDS011;38747;53.140;6.498;2022-09-13T05:00:10;5.60;;;1.67;;
52878;SDS011;38747;53.140;6.498;2022-09-13T05:02:36;5.32;;;1.67;;
52878;SDS011;38747;53.140;6.498;2022-09-13T05:05:02;4.07;;;1.67;;
52878;SDS011;38747;53.140;6.498;2022-09-13T05:07:28;6.47;;;1.60;;
52878;SDS011;38747;53.140;6.498;2022-09-13T05:09:53;5.63;;;1.70;;
52878;SDS011;38747;53.140;6.498;2022-09-13T05:12:19;6.33;;;1.50;;
52878;SDS011;38747;53.140;6.498;2022-09-13T05:14:44;6.23;;;1.50;;
52878;SDS011;38747;53.140;6.498;2022-09-13T05:17:10;4.22;;;1.45;;
52878;SDS011;38747;53.140;6.498;2022-09-13T05:19:36;3.42;;;1.40;;
52878;SDS011;38747;53.140;6.498;2022-09-13T05:22:01;7.53;;;1.50;;
52878;SDS011;38747;53.140;6.498;2022-09-13T05:24:27;6.82;;;1.33;;
52878;SDS011;38747;53.140;6.498;2022-09-13T05:26:53;4.07;;;1.07;;
52878;SDS011;38747;53.140;6.498;2022-09-13T05:29:18;6.85;;;1.15;;
52878;SDS011;38747;53.140;6.498;2022-09-13T05:31:44;4.77;;;1.10;;
52878;SDS011;38747;53.140;6.498;2022-09-13T05:34:11;7.15;;;1.40;;
52878;SDS011;38747;53.140;6.498;2022-09-13T05:36:38;5.40;;;1.42;;
52878;SDS011;38747;53.140;6.498;2022-09-13T05:39:04;7.57;;;1.40;;
52878;SDS011;38747;53.140;6.498;2022-09-13T05:41:31;6.38;;;1.58;;
52878;SDS011;38747;53.140;6.498;2022-09-13T05:43:57;5.25;;;1.40;;
52878;SDS011;38747;53.140;6.498;2022-09-13T05:46:23;4.93;;;1.60;;
52878;SDS011;38747;53.140;6.498;2022-09-13T05:48:49;6.53;;;1.52;;
52878;SDS011;38747;53.140;6.498;2022-09-13T05:51:15;5.17;;;1.33;;
52878;SDS011;38747;53.140;6.498;2022-09-13T05:53:43;7.13;;;1.90;;
52878;SDS011;38747;53.140;6.498;2022-09-13T05:56:12;5.18;;;1.70;;
52878;SDS011;38747;53.140;6.498;2022-09-13T05:58:40;6.22;;;1.70;;
52878;SDS011;38747;53.140;6.498;2022-09-13T06:01:07;6.30;;;1.85;;
52878;SDS011;38747;53.140;6.498;2022-09-13T06:03:33;5.93;;;1.90;;
52878;SDS011;38747;53.140;6.498;2022-09-13T06:06:00;7.93;;;2.17;;
52878;SDS011;38747;53.140;6.498;2022-09-13T06:08:30;7.28;;;2.20;;
52878;SDS011;38747;53.140;6.498;2022-09-13T06:10:57;7.45;;;2.00;;
52878;SDS011;38747;53.140;6.498;2022-09-13T06:13:33;6.95;;;1.92;;
52878;SDS011;38747;53.140;6.498;2022-09-13T06:16:00;6.87;;;2.10;;
52878;SDS011;38747;53.140;6.498;2022-09-13T06:18:27;6.05;;;2.03;;
52878;SDS011;38747;53.140;6.498;2022-09-13T06:20:57;6.82;;;2.20;;
52878;SDS011;38747;53.140;6.498;2022-09-13T06:23:34;10.95;;;2.40;;
52878;SDS011;38747;53.140;6.498;2022-09-13T06:26:07;7.80;;;2.10;;
52878;SDS011;38747;53.140;6.498;2022-09-13T06:28:37;5.57;;;2.00;;
52878;SDS011;38747;53.140;6.498;2022-09-13T06:31:04;7.97;;;2.17;;
52878;SDS011;38747;53.140;6.498;2022-09-13T06:33:31;5.65;;;2.10;;
52878;SDS011;38747;53.140;6.498;2022-09-13T06:36:11;7.30;;;2.08;;
52878;SDS011;38747;53.140;6.498;2022-09-13T06:38:38;8.63;;;2.00;;
52878;SDS011;38747;53.140;6.498;2022-09-13T06:41:06;8.50;;;2.17;;
52878;SDS011;38747;53.140;6.498;2022-09-13T06:43:34;8.30;;;2.17;;
52878;SDS011;38747;53.140;6.498;2022-09-13T06:46:00;9.07;;;2.40;;
52878;SDS011;38747;53.140;6.498;2022-09-13T06:48:29;6.43;;;2.00;;
52878;SDS011;38747;53.140;6.498;2022-09-13T06:50:59;8.27;;;3.80;;
52878;SDS011;38747;53.140;6.498;2022-09-13T06:53:26;8.77;;;2.30;;
52878;SDS011;38747;53.140;6.498;2022-09-13T06:56:12;12.82;;;2.10;;
52878;SDS011;38747;53.140;6.498;2022-09-13T06:58:40;8.43;;;1.77;;
52878;SDS011;38747;53.140;6.498;2022-09-13T07:01:11;5.40;;;1.80;;
52878;SDS011;38747;53.140;6.498;2022-09-13T07:03:38;7.03;;;1.83;;
52878;SDS011;38747;53.140;6.498;2022-09-13T07:06:06;7.50;;;1.80;;
52878;SDS011;38747;53.140;6.498;2022-09-13T07:08:37;7.57;;;1.70;;
52878;SDS011;38747;53.140;6.498;2022-09-13T07:11:03;7.05;;;1.58;;
52878;SDS011;38747;53.140;6.498;2022-09-13T07:13:29;7.20;;;1.73;;
52878;SDS011;38747;53.140;6.498;2022-09-13T07:15:55;6.53;;;1.63;;
52878;SDS011;38747;53.140;6.498;2022-09-13T07:18:21;4.57;;;1.58;;
52878;SDS011;38747;53.140;6.498;2022-09-13T07:20:46;5.13;;;1.70;;
52878;SDS011;38747;53.140;6.498;2022-09-13T07:23:12;7.75;;;1.40;;
52878;SDS011;38747;53.140;6.498;2022-09-13T07:25:38;8.17;;;1.40;;
52878;SDS011;38747;53.140;6.498;2022-09-13T07:28:03;5.47;;;1.30;;
52878;SDS011;38747;53.140;6.498;2022-09-13T07:30:29;10.33;;;1.60;;
52878;SDS011;38747;53.140;6.498;2022-09-13T07:32:54;9.37;;;1.33;;
52878;SDS011;38747;53.140;6.498;2022-09-13T07:35:20;6.70;;;1.00;;
52878;SDS011;38747;53.140;6.498;2022-09-13T07:37:45;5.80;;;1.30;;
52878;SDS011;38747;53.140;6.498;2022-09-13T07:40:11;6.77;;;1.20;;
52878;SDS011;38747;53.140;6.498;2022-09-13T07:42:37;6.85;;;1.08;;
52878;SDS011;38747;53.140;6.498;2022-09-13T07:45:03;8.55;;;1.50;;
52878;SDS011;38747;53.140;6.498;2022-09-13T07:47:31;8.25;;;1.10;;
52878;SDS011;38747;53.140;6.498;2022-09-13T07:49:57;10.60;;;1.20;;
52878;SDS011;38747;53.140;6.498;2022-09-13T07:52:23;10.25;;;1.13;;
52878;SDS011;38747;53.140;6.498;2022-09-13T07:54:48;5.80;;;1.07;;
52878;SDS011;38747;53.140;6.498;2022-09-13T07:57:14;8.40;;;1.08;;
52878;SDS011;38747;53.140;6.498;2022-09-13T07:59:39;7.47;;;1.17;;
52878;SDS011;38747;53.140;6.498;2022-09-13T08:02:07;4.10;;;0.90;;
52878;SDS011;38747;53.140;6.498;2022-09-13T08:04:33;5.35;;;1.40;;
52878;SDS011;38747;53.140;6.498;2022-09-13T08:06:59;5.95;;;0.93;;
52878;SDS011;38747;53.140;6.498;2022-09-13T08:09:25;6.37;;;0.90;;
52878;SDS011;38747;53.140;6.498;2022-09-13T08:11:51;3.63;;;0.77;;
52878;SDS011;38747;53.140;6.498;2022-09-13T08:14:17;7.53;;;1.20;;
52878;SDS011;38747;53.140;6.498;2022-09-13T08:16:44;5.95;;;1.00;;
52878;SDS011;38747;53.140;6.498;2022-09-13T08:19:14;6.28;;;0.85;;
52878;SDS011;38747;53.140;6.498;2022-09-13T08:21:41;8.20;;;1.10;;
52878;SDS011;38747;53.140;6.498;2022-09-13T08:24:10;7.80;;;0.93;;
52878;SDS011;38747;53.140;6.498;2022-09-13T08:26:41;7.70;;;0.90;;
52878;SDS011;38747;53.140;6.498;2022-09-13T08:29:07;5.38;;;0.80;;
52878;SDS011;38747;53.140;6.498;2022-09-13T08:31:34;6.63;;;0.88;;
52878;SDS011;38747;53.140;6.498;2022-09-13T08:34:00;4.90;;;0.80;;
52878;SDS011;38747;53.140;6.498;2022-09-13T08:36:26;3.97;;;0.80;;
52878;SDS011;38747;53.140;6.498;2022-09-13T08:38:56;6.03;;;0.90;;
52878;SDS011;38747;53.140;6.498;2022-09-13T08:47:06;5.38;;;0.90;;
52878;SDS011;38747;53.140;6.498;2022-09-13T08:52:47;4.25;;;0.80;;
52878;SDS011;38747;53.140;6.498;2022-09-13T08:55:36;4.90;;;0.73;;
52878;SDS011;38747;53.140;6.498;2022-09-13T08:58:15;3.95;;;0.82;;
52878;SDS011;38747;53.140;6.498;2022-09-13T09:00:46;8.05;;;1.20;;
52878;SDS011;38747;53.140;6.498;2022-09-13T09:03:27;4.82;;;0.93;;
52878;SDS011;38747;53.140;6.498;2022-09-13T09:06:18;5.95;;;0.90;;
52878;SDS011;38747;53.140;6.498;2022-09-13T09:08:48;4.67;;;0.97;;
52878;SDS011;38747;53.140;6.498;2022-09-13T09:17:00;4.22;;;0.73;;
52878;SDS011;38747;53.140;6.498;2022-09-13T09:19:32;7.25;;;0.98;;
52878;SDS011;38747;53.140;6.498;2022-09-13T09:22:03;7.97;;;1.07;;
52878;SDS011;38747;53.140;6.498;2022-09-13T09:24:32;7.25;;;1.00;;
52878;SDS011;38747;53.140;6.498;2022-09-13T09:27:04;7.63;;;1.05;;
52878;SDS011;38747;53.140;6.498;2022-09-13T09:29:39;3.88;;;0.65;;
52878;SDS011;38747;53.140;6.498;2022-09-13T09:37:27;6.65;;;0.80;;
52878;SDS011;38747;53.140;6.498;2022-09-13T09:39:57;7.20;;;0.93;;
52878;SDS011;38747;53.140;6.498;2022-09-13T09:42:29;8.15;;;0.93;;
52878;SDS011;38747;53.140;6.498;2022-09-13T09:45:16;7.60;;;1.13;;
52878;SDS011;38747;53.140;6.498;2022-09-13T09:47:49;4.83;;;0.70;;
52878;SDS011;38747;53.140;6.498;2022-09-13T09:50:16;4.97;;;0.80;;
52878;SDS011;38747;53.140;6.498;2022-09-13T09:55:47;7.30;;;0.85;;
52878;SDS011;38747;53.140;6.498;2022-09-13T09:58:17;7.65;;;0.90;;
52878;SDS011;38747;53.140;6.498;2022-09-13T10:01:04;4.93;;;0.70;;
52878;SDS011;38747;53.140;6.498;2022-09-13T10:03:38;5.10;;;0.60;;
52878;SDS011;38747;53.140;6.498;2022-09-13T10:06:10;5.75;;;0.70;;
52878;SDS011;38747;53.140;6.498;2022-09-13T10:08:39;7.05;;;0.80;;
52878;SDS011;38747;53.140;6.498;2022-09-13T10:11:06;4.00;;;0.60;;
52878;SDS011;38747;53.140;6.498;2022-09-13T10:13:33;6.97;;;1.00;;
52878;SDS011;38747;53.140;6.498;2022-09-13T10:16:01;6.38;;;0.90;;
52878;SDS011;38747;53.140;6.498;2022-09-13T10:18:30;5.70;;;0.80;;
52878;SDS011;38747;53.140;6.498;2022-09-13T10:23:48;9.43;;;1.25;;
52878;SDS011;38747;53.140;6.498;2022-09-13T10:26:18;5.27;;;0.77;;
52878;SDS011;38747;53.140;6.498;2022-09-13T10:28:48;4.40;;;0.63;;
52878;SDS011;38747;53.140;6.498;2022-09-13T10:31:16;8.00;;;1.02;;
52878;SDS011;38747;53.140;6.498;2022-09-13T10:33:51;6.38;;;0.82;;
52878;SDS011;38747;53.140;6.498;2022-09-13T10:36:25;7.60;;;1.10;;
52878;SDS011;38747;53.140;6.498;2022-09-13T10:38:59;9.40;;;1.10;;
52878;SDS011;38747;53.140;6.498;2022-09-13T10:41:31;8.73;;;0.85;;
52878;SDS011;38747;53.140;6.498;2022-09-13T10:44:03;7.20;;;0.90;;
52878;SDS011;38747;53.140;6.498;2022-09-13T10:46:31;7.00;;;1.10;;
52878;SDS011;38747;53.140;6.498;2022-09-13T10:49:00;6.13;;;0.80;;
52878;SDS011;38747;53.140;6.498;2022-09-13T10:56:44;8.53;;;0.80;;
52878;SDS011;38747;53.140;6.498;2022-09-13T10:59:14;4.80;;;0.80;;
52878;SDS011;38747;53.140;6.498;2022-09-13T11:07:39;4.63;;;1.00;;
52878;SDS011;38747;53.140;6.498;2022-09-13T11:13:12;6.38;;;0.70;;
52878;SDS011;38747;53.140;6.498;2022-09-13T11:18:45;4.82;;;0.68;;
52878;SDS011;38747;53.140;6.498;2022-09-13T11:27:18;4.63;;;0.65;;
52878;SDS011;38747;53.140;6.498;2022-09-13T11:29:52;5.35;;;0.90;;
52878;SDS011;38747;53.140;6.498;2022-09-13T11:48:33;4.82;;;0.88;;
52878;SDS011;38747;53.140;6.498;2022-09-13T11:51:16;5.43;;;0.70;;
52878;SDS011;38747;53.140;6.498;2022-09-13T11:56:40;5.43;;;0.93;;
52878;SDS011;38747;53.140;6.498;2022-09-13T12:02:26;5.68;;;0.85;;
52878;SDS011;38747;53.140;6.498;2022-09-13T12:04:58;7.60;;;0.90;;
52878;SDS011;38747;53.140;6.498;2022-09-13T12:07:53;5.72;;;0.80;;
52878;SDS011;38747;53.140;6.498;2022-09-13T12:10:27;7.00;;;1.52;;
52878;SDS011;38747;53.140;6.498;2022-09-13T12:12:57;6.13;;;1.02;;
52878;SDS011;38747;53.140;6.498;2022-09-13T12:17:58;6.43;;;1.17;;
52878;SDS011;38747;53.140;6.498;2022-09-13T12:20:37;6.22;;;0.95;;
52878;SDS011;38747;53.140;6.498;2022-09-13T12:23:13;8.55;;;1.20;;
52878;SDS011;38747;53.140;6.498;2022-09-13T12:25:49;4.97;;;0.90;;
52878;SDS011;38747;53.140;6.498;2022-09-13T12:28:33;5.95;;;1.02;;
52878;SDS011;38747;53.140;6.498;2022-09-13T12:31:27;7.70;;;0.93;;
52878;SDS011;38747;53.140;6.498;2022-09-13T12:33:54;4.68;;;0.73;;
52878;SDS011;38747;53.140;6.498;2022-09-13T12:41:53;6.13;;;0.93;;
52878;SDS011;38747;53.140;6.498;2022-09-13T12:50:31;8.07;;;1.00;;
52878;SDS011;38747;53.140;6.498;2022-09-13T12:53:50;7.05;;;1.13;;
52878;SDS011;38747;53.140;6.498;2022-09-13T12:56:40;9.05;;;0.95;;
52878;SDS011;38747;53.140;6.498;2022-09-13T13:02:36;6.53;;;0.95;;
52878;SDS011;38747;53.140;6.498;2022-09-13T13:05:23;3.55;;;1.05;;
52878;SDS011;38747;53.140;6.498;2022-09-13T13:07:53;8.40;;;1.15;;
52878;SDS011;38747;53.140;6.498;2022-09-13T13:12:54;7.90;;;1.23;;
52878;SDS011;38747;53.140;6.498;2022-09-13T13:17:51;7.28;;;1.02;;
52878;SDS011;38747;53.140;6.498;2022-09-13T13:23:31;5.85;;;0.82;;
52878;SDS011;38747;53.140;6.498;2022-09-13T13:26:06;4.80;;;0.80;;
52878;SDS011;38747;53.140;6.498;2022-09-13T13:33:56;9.40;;;1.00;;
52878;SDS011;38747;53.140;6.498;2022-09-13T13:36:30;9.50;;;1.40;;
52878;SDS011;38747;53.140;6.498;2022-09-13T13:41:55;8.32;;;0.90;;
52878;SDS011;38747;53.140;6.498;2022-09-13T13:59:44;6.00;;;0.88;;
52878;SDS011;38747;53.140;6.498;2022-09-13T14:02:13;4.60;;;0.93;;
52878;SDS011;38747;53.140;6.498;2022-09-13T14:04:51;5.50;;;0.90;;
52878;SDS011;38747;53.140;6.498;2022-09-13T14:19:26;5.85;;;0.90;;
52878;SDS011;38747;53.140;6.498;2022-09-13T14:22:15;7.15;;;0.90;;
52878;SDS011;38747;53.140;6.498;2022-09-13T14:24:45;7.10;;;0.93;;
52878;SDS011;38747;53.140;6.498;2022-09-13T14:27:16;6.95;;;1.00;;
52878;SDS011;38747;53.140;6.498;2022-09-13T14:29:48;6.28;;;0.90;;
52878;SDS011;38747;53.140;6.498;2022-09-13T14:32:21;6.80;;;0.90;;
52878;SDS011;38747;53.140;6.498;2022-09-13T14:34:52;5.53;;;1.10;;
52878;SDS011;38747;53.140;6.498;2022-09-13T14:37:32;8.97;;;1.20;;
52878;SDS011;38747;53.140;6.498;2022-09-13T14:40:21;4.80;;;0.70;;
52878;SDS011;38747;53.140;6.498;2022-09-13T14:42:50;6.85;;;1.20;;
52878;SDS011;38747;53.140;6.498;2022-09-13T14:45:22;7.78;;;1.13;;
52878;SDS011;38747;53.140;6.498;2022-09-13T14:48:00;6.40;;;1.00;;
52878;SDS011;38747;53.140;6.498;2022-09-13T14:50:41;6.30;;;0.80;;
52878;SDS011;38747;53.140;6.498;2022-09-13T14:53:18;6.22;;;1.10;;
52878;SDS011;38747;53.140;6.498;2022-09-13T14:58:23;6.30;;;0.82;;
52878;SDS011;38747;53.140;6.498;2022-09-13T15:00:57;7.32;;;0.88;;
52878;SDS011;38747;53.140;6.498;2022-09-13T15:03:25;6.77;;;1.00;;
52878;SDS011;38747;53.140;6.498;2022-09-13T15:05:58;5.57;;;0.60;;
52878;SDS011;38747;53.140;6.498;2022-09-13T15:10:57;5.97;;;0.95;;
52878;SDS011;38747;53.140;6.498;2022-09-13T15:13:24;6.25;;;0.85;;
52878;SDS011;38747;53.140;6.498;2022-09-13T15:15:50;9.60;;;1.10;;
52878;SDS011;38747;53.140;6.498;2022-09-13T15:23:36;6.47;;;0.80;;
52878;SDS011;38747;53.140;6.498;2022-09-13T15:26:18;6.07;;;1.00;;
52878;SDS011;38747;53.140;6.498;2022-09-13T15:31:20;5.82;;;0.93;;
52878;SDS011;38747;53.140;6.498;2022-09-13T15:33:47;4.53;;;0.80;;
52878;SDS011;38747;53.140;6.498;2022-09-13T15:41:38;6.72;;;0.95;;
52878;SDS011;38747;53.140;6.498;2022-09-13T15:44:06;5.45;;;0.90;;
52878;SDS011;38747;53.140;6.498;2022-09-13T15:46:33;5.30;;;0.90;;
52878;SDS011;38747;53.140;6.498;2022-09-13T15:49:08;5.78;;;0.70;;
52878;SDS011;38747;53.140;6.498;2022-09-13T15:51:41;5.82;;;0.73;;
52878;SDS011;38747;53.140;6.498;2022-09-13T15:54:14;4.68;;;0.70;;
52878;SDS011;38747;53.140;6.498;2022-09-13T15:56:45;7.45;;;1.02;;
52878;SDS011;38747;53.140;6.498;2022-09-13T15:59:12;5.50;;;0.60;;
52878;SDS011;38747;53.140;6.498;2022-09-13T16:01:38;4.85;;;0.63;;
52878;SDS011;38747;53.140;6.498;2022-09-13T16:04:05;4.93;;;0.90;;
52878;SDS011;38747;53.140;6.498;2022-09-13T16:06:31;7.28;;;0.95;;
52878;SDS011;38747;53.140;6.498;2022-09-13T16:08:57;6.83;;;0.90;;
52878;SDS011;38747;53.140;6.498;2022-09-13T16:11:24;5.32;;;0.85;;
52878;SDS011;38747;53.140;6.498;2022-09-13T16:13:50;6.43;;;0.75;;
52878;SDS011;38747;53.140;6.498;2022-09-13T16:16:15;4.70;;;0.80;;
52878;SDS011;38747;53.140;6.498;2022-09-13T16:18:41;5.03;;;0.70;;
52878;SDS011;38747;53.140;6.498;2022-09-13T16:21:07;6.33;;;0.70;;
52878;SDS011;38747;53.140;6.498;2022-09-13T16:23:32;7.28;;;1.23;;
52878;SDS011;38747;53.140;6.498;2022-09-13T16:25:58;6.37;;;0.90;;
52878;SDS011;38747;53.140;6.498;2022-09-13T16:28:24;8.90;;;1.00;;
52878;SDS011;38747;53.140;6.498;2022-09-13T16:30:50;4.07;;;0.80;;
52878;SDS011;38747;53.140;6.498;2022-09-13T16:33:17;5.00;;;0.90;;
52878;SDS011;38747;53.140;6.498;2022-09-13T16:35:43;5.15;;;0.98;;
52878;SDS011;38747;53.140;6.498;2022-09-13T16:38:10;6.83;;;1.00;;
52878;SDS011;38747;53.140;6.498;2022-09-13T16:40:37;8.25;;;0.88;;
52878;SDS011;38747;53.140;6.498;2022-09-13T16:43:04;4.65;;;0.80;;
52878;SDS011;38747;53.140;6.498;2022-09-13T16:45:29;5.23;;;0.80;;
52878;SDS011;38747;53.140;6.498;2022-09-13T16:47:55;5.82;;;1.00;;
52878;SDS011;38747;53.140;6.498;2022-09-13T16:50:20;5.17;;;0.77;;
52878;SDS011;38747;53.140;6.498;2022-09-13T16:52:46;5.70;;;0.65;;
52878;SDS011;38747;53.140;6.498;2022-09-13T16:55:12;7.80;;;0.80;;
52878;SDS011;38747;53.140;6.498;2022-09-13T16:57:37;9.87;;;0.93;;
52878;SDS011;38747;53.140;6.498;2022-09-13T17:00:04;5.07;;;0.80;;
52878;SDS011;38747;53.140;6.498;2022-09-13T17:02:33;6.47;;;0.95;;
52878;SDS011;38747;53.140;6.498;2022-09-13T17:04:59;4.35;;;0.80;;
52878;SDS011;38747;53.140;6.498;2022-09-13T17:07:25;6.37;;;1.07;;
52878;SDS011;38747;53.140;6.498;2022-09-13T17:09:51;4.35;;;0.80;;
52878;SDS011;38747;53.140;6.498;2022-09-13T17:12:17;6.72;;;0.85;;
52878;SDS011;38747;53.140;6.498;2022-09-13T17:14:42;5.10;;;1.10;;
52878;SDS011;38747;53.140;6.498;2022-09-13T17:17:11;3.40;;;0.88;;
52878;SDS011;38747;53.140;6.498;2022-09-13T17:19:39;5.18;;;0.90;;
52878;SDS011;38747;53.140;6.498;2022-09-13T17:22:04;4.80;;;1.07;;
52878;SDS011;38747;53.140;6.498;2022-09-13T17:24:32;3.50;;;0.80;;
52878;SDS011;38747;53.140;6.498;2022-09-13T17:26:58;4.78;;;0.85;;
52878;SDS011;38747;53.140;6.498;2022-09-13T17:29:24;5.72;;;0.88;;
52878;SDS011;38747;53.140;6.498;2022-09-13T17:31:52;5.53;;;0.80;;
52878;SDS011;38747;53.140;6.498;2022-09-13T17:34:18;4.53;;;1.15;;
52878;SDS011;38747;53.140;6.498;2022-09-13T17:36:43;7.95;;;0.85;;
52878;SDS011;38747;53.140;6.498;2022-09-13T17:39:09;6.87;;;0.90;;
52878;SDS011;38747;53.140;6.498;2022-09-13T17:41:35;7.30;;;0.95;;
52878;SDS011;38747;53.140;6.498;2022-09-13T17:44:01;6.78;;;1.10;;
52878;SDS011;38747;53.140;6.498;2022-09-13T17:46:27;5.73;;;1.03;;
52878;SDS011;38747;53.140;6.498;2022-09-13T17:48:54;5.15;;;0.80;;
52878;SDS011;38747;53.140;6.498;2022-09-13T17:51:23;4.82;;;0.90;;
52878;SDS011;38747;53.140;6.498;2022-09-13T17:54:00;7.78;;;0.90;;
52878;SDS011;38747;53.140;6.498;2022-09-13T17:59:06;6.77;;;0.90;;
52878;SDS011;38747;53.140;6.498;2022-09-13T18:01:35;4.90;;;0.73;;
52878;SDS011;38747;53.140;6.498;2022-09-13T18:04:03;4.60;;;0.80;;
52878;SDS011;38747;53.140;6.498;2022-09-13T18:06:28;3.67;;;1.00;;
52878;SDS011;38747;53.140;6.498;2022-09-13T18:08:55;6.00;;;0.80;;
52878;SDS011;38747;53.140;6.498;2022-09-13T18:11:22;7.30;;;1.17;;
52878;SDS011;38747;53.140;6.498;2022-09-13T18:13:48;6.72;;;0.98;;